sensor_id;sensor_type;location;lat;lon;timestamp;P1;durP1;ratioP1;P2;durP2;ratioP2
50495;SDS011;38806;51.554;5.704;2023-07-31T00:01:55;31.65;;;13.45;;
50495;SDS011;38806;51.554;5.704;2023-07-31T00:03:55;30.67;;;14.73;;
50495;SDS011;38806;51.554;5.704;2023-07-31T00:05:55;32.20;;;16.80;;
50495;SDS011;38806;51.554;5.704;2023-07-31T00:07:55;32.15;;;13.13;;
50495;SDS011;38806;51.554;5.704;2023-07-31T00:09:56;25.33;;;12.30;;
50495;SDS011;38806;51.554;5.704;2023-07-31T00:11:56;25.17;;;13.05;;
50495;SDS011;38806;51.554;5.704;2023-07-31T00:13:56;28.58;;;11.15;;
50495;SDS011;38806;51.554;5.704;2023-07-31T00:15:57;26.55;;;11.07;;
50495;SDS011;38806;51.554;5.704;2023-07-31T00:17:57;21.17;;;11.35;;
50495;SDS011;38806;51.554;5.704;2023-07-31T00:19:57;28.67;;;11.65;;
50495;SDS011;38806;51.554;5.704;2023-07-31T00:21:57;27.80;;;11.40;;
50495;SDS011;38806;51.554;5.704;2023-07-31T00:23:57;22.50;;;12.30;;
50495;SDS011;38806;51.554;5.704;2023-07-31T00:25:57;31.00;;;11.65;;
50495;SDS011;38806;51.554;5.704;2023-07-31T00:27:58;29.73;;;11.57;;
50495;SDS011;38806;51.554;5.704;2023-07-31T00:29:58;23.00;;;11.02;;
50495;SDS011;38806;51.554;5.704;2023-07-31T00:31:58;25.53;;;9.73;;
50495;SDS011;38806;51.554;5.704;2023-07-31T00:33:58;22.65;;;10.10;;
50495;SDS011;38806;51.554;5.704;2023-07-31T00:35:58;18.60;;;10.00;;
50495;SDS011;38806;51.554;5.704;2023-07-31T00:37:59;22.50;;;9.43;;
50495;SDS011;38806;51.554;5.704;2023-07-31T00:39:59;21.00;;;8.85;;
50495;SDS011;38806;51.554;5.704;2023-07-31T00:41:59;21.35;;;8.40;;
50495;SDS011;38806;51.554;5.704;2023-07-31T00:43:59;23.08;;;9.27;;
50495;SDS011;38806;51.554;5.704;2023-07-31T00:46:00;17.98;;;8.45;;
50495;SDS011;38806;51.554;5.704;2023-07-31T00:48:00;24.00;;;9.85;;
50495;SDS011;38806;51.554;5.704;2023-07-31T00:50:01;27.35;;;8.05;;
50495;SDS011;38806;51.554;5.704;2023-07-31T00:52:01;22.27;;;10.40;;
50495;SDS011;38806;51.554;5.704;2023-07-31T00:54:02;22.80;;;9.57;;
50495;SDS011;38806;51.554;5.704;2023-07-31T00:56:03;18.67;;;8.73;;
50495;SDS011;38806;51.554;5.704;2023-07-31T00:58:03;19.05;;;7.82;;
50495;SDS011;38806;51.554;5.704;2023-07-31T01:00:03;20.98;;;9.48;;
50495;SDS011;38806;51.554;5.704;2023-07-31T01:02:04;20.88;;;7.72;;
50495;SDS011;38806;51.554;5.704;2023-07-31T01:04:04;25.38;;;10.27;;
50495;SDS011;38806;51.554;5.704;2023-07-31T01:06:09;19.48;;;7.53;;
50495;SDS011;38806;51.554;5.704;2023-07-31T01:10:24;26.35;;;8.23;;
50495;SDS011;38806;51.554;5.704;2023-07-31T01:12:26;21.30;;;7.40;;
50495;SDS011;38806;51.554;5.704;2023-07-31T01:14:27;15.70;;;6.88;;
50495;SDS011;38806;51.554;5.704;2023-07-31T01:16:27;22.83;;;9.15;;
50495;SDS011;38806;51.554;5.704;2023-07-31T01:18:27;20.15;;;8.25;;
50495;SDS011;38806;51.554;5.704;2023-07-31T01:20:28;19.40;;;8.77;;
50495;SDS011;38806;51.554;5.704;2023-07-31T01:27:17;16.85;;;6.82;;
50495;SDS011;38806;51.554;5.704;2023-07-31T01:29:22;14.90;;;6.53;;
50495;SDS011;38806;51.554;5.704;2023-07-31T01:31:26;18.88;;;8.93;;
50495;SDS011;38806;51.554;5.704;2023-07-31T01:33:28;16.55;;;7.32;;
50495;SDS011;38806;51.554;5.704;2023-07-31T01:35:28;15.85;;;5.55;;
50495;SDS011;38806;51.554;5.704;2023-07-31T01:37:29;17.48;;;7.20;;
50495;SDS011;38806;51.554;5.704;2023-07-31T01:39:30;19.55;;;7.03;;
50495;SDS011;38806;51.554;5.704;2023-07-31T01:41:30;18.73;;;6.82;;
50495;SDS011;38806;51.554;5.704;2023-07-31T01:43:30;19.48;;;5.65;;
50495;SDS011;38806;51.554;5.704;2023-07-31T01:45:30;20.73;;;7.85;;
50495;SDS011;38806;51.554;5.704;2023-07-31T01:47:31;16.80;;;6.10;;
50495;SDS011;38806;51.554;5.704;2023-07-31T01:49:31;17.88;;;8.93;;
50495;SDS011;38806;51.554;5.704;2023-07-31T01:51:31;16.67;;;7.50;;
50495;SDS011;38806;51.554;5.704;2023-07-31T01:53:34;15.82;;;6.95;;
50495;SDS011;38806;51.554;5.704;2023-07-31T01:55:34;19.42;;;6.78;;
50495;SDS011;38806;51.554;5.704;2023-07-31T01:57:36;14.88;;;6.50;;
50495;SDS011;38806;51.554;5.704;2023-07-31T01:59:36;20.33;;;7.57;;
50495;SDS011;38806;51.554;5.704;2023-07-31T02:01:36;15.73;;;7.63;;
50495;SDS011;38806;51.554;5.704;2023-07-31T02:03:36;15.60;;;7.27;;
50495;SDS011;38806;51.554;5.704;2023-07-31T02:05:43;24.13;;;7.15;;
50495;SDS011;38806;51.554;5.704;2023-07-31T02:07:43;11.90;;;6.53;;
50495;SDS011;38806;51.554;5.704;2023-07-31T02:09:43;17.08;;;7.13;;
50495;SDS011;38806;51.554;5.704;2023-07-31T02:11:43;14.55;;;6.53;;
50495;SDS011;38806;51.554;5.704;2023-07-31T02:13:44;20.70;;;6.70;;
50495;SDS011;38806;51.554;5.704;2023-07-31T02:15:45;15.25;;;6.43;;
50495;SDS011;38806;51.554;5.704;2023-07-31T02:17:45;15.23;;;6.97;;
50495;SDS011;38806;51.554;5.704;2023-07-31T02:19:45;19.95;;;8.18;;
50495;SDS011;38806;51.554;5.704;2023-07-31T02:21:45;17.90;;;7.10;;
50495;SDS011;38806;51.554;5.704;2023-07-31T02:23:45;17.60;;;5.93;;
50495;SDS011;38806;51.554;5.704;2023-07-31T02:25:46;13.18;;;6.80;;
50495;SDS011;38806;51.554;5.704;2023-07-31T02:27:46;14.52;;;7.07;;
50495;SDS011;38806;51.554;5.704;2023-07-31T02:29:46;19.15;;;8.50;;
50495;SDS011;38806;51.554;5.704;2023-07-31T02:31:46;14.37;;;8.33;;
50495;SDS011;38806;51.554;5.704;2023-07-31T02:33:47;19.08;;;7.28;;
50495;SDS011;38806;51.554;5.704;2023-07-31T02:35:47;15.37;;;6.10;;
50495;SDS011;38806;51.554;5.704;2023-07-31T02:37:47;19.27;;;7.20;;
50495;SDS011;38806;51.554;5.704;2023-07-31T02:39:47;17.48;;;6.47;;
50495;SDS011;38806;51.554;5.704;2023-07-31T02:41:48;19.58;;;8.18;;
50495;SDS011;38806;51.554;5.704;2023-07-31T02:43:48;19.85;;;6.55;;
50495;SDS011;38806;51.554;5.704;2023-07-31T02:45:51;21.63;;;6.90;;
50495;SDS011;38806;51.554;5.704;2023-07-31T02:47:52;18.17;;;8.85;;
50495;SDS011;38806;51.554;5.704;2023-07-31T02:49:52;19.00;;;8.65;;
50495;SDS011;38806;51.554;5.704;2023-07-31T02:51:52;21.93;;;9.43;;
50495;SDS011;38806;51.554;5.704;2023-07-31T02:53:53;15.55;;;6.95;;
50495;SDS011;38806;51.554;5.704;2023-07-31T02:55:53;14.50;;;6.50;;
50495;SDS011;38806;51.554;5.704;2023-07-31T02:57:53;19.30;;;7.50;;
50495;SDS011;38806;51.554;5.704;2023-07-31T02:59:53;21.95;;;8.20;;
50495;SDS011;38806;51.554;5.704;2023-07-31T03:01:53;21.13;;;9.90;;
50495;SDS011;38806;51.554;5.704;2023-07-31T03:03:54;14.00;;;6.88;;
50495;SDS011;38806;51.554;5.704;2023-07-31T03:05:54;12.75;;;7.22;;
50495;SDS011;38806;51.554;5.704;2023-07-31T03:07:54;17.45;;;7.93;;
50495;SDS011;38806;51.554;5.704;2023-07-31T03:09:54;19.27;;;6.70;;
50495;SDS011;38806;51.554;5.704;2023-07-31T03:11:54;15.63;;;6.57;;
50495;SDS011;38806;51.554;5.704;2023-07-31T03:13:55;25.00;;;7.82;;
50495;SDS011;38806;51.554;5.704;2023-07-31T03:15:55;13.95;;;6.55;;
50495;SDS011;38806;51.554;5.704;2023-07-31T03:17:55;18.27;;;6.07;;
50495;SDS011;38806;51.554;5.704;2023-07-31T03:19:55;24.30;;;7.47;;
50495;SDS011;38806;51.554;5.704;2023-07-31T03:21:55;19.48;;;7.85;;
50495;SDS011;38806;51.554;5.704;2023-07-31T03:23:56;18.13;;;7.35;;
50495;SDS011;38806;51.554;5.704;2023-07-31T03:26:00;19.08;;;7.25;;
50495;SDS011;38806;51.554;5.704;2023-07-31T03:28:00;20.00;;;7.63;;
50495;SDS011;38806;51.554;5.704;2023-07-31T03:30:02;19.83;;;7.82;;
50495;SDS011;38806;51.554;5.704;2023-07-31T03:32:02;14.05;;;7.55;;
50495;SDS011;38806;51.554;5.704;2023-07-31T03:34:03;17.05;;;6.90;;
50495;SDS011;38806;51.554;5.704;2023-07-31T03:36:03;14.30;;;5.82;;
50495;SDS011;38806;51.554;5.704;2023-07-31T03:38:03;21.70;;;8.10;;
50495;SDS011;38806;51.554;5.704;2023-07-31T03:40:04;19.83;;;6.97;;
50495;SDS011;38806;51.554;5.704;2023-07-31T03:42:04;18.00;;;7.38;;
50495;SDS011;38806;51.554;5.704;2023-07-31T03:44:04;17.80;;;7.45;;
50495;SDS011;38806;51.554;5.704;2023-07-31T03:46:05;16.90;;;7.07;;
50495;SDS011;38806;51.554;5.704;2023-07-31T03:48:05;25.38;;;7.65;;
50495;SDS011;38806;51.554;5.704;2023-07-31T03:50:05;18.25;;;6.65;;
50495;SDS011;38806;51.554;5.704;2023-07-31T03:52:06;17.77;;;8.13;;
50495;SDS011;38806;51.554;5.704;2023-07-31T03:54:06;19.90;;;6.88;;
50495;SDS011;38806;51.554;5.704;2023-07-31T03:56:07;20.48;;;8.23;;
50495;SDS011;38806;51.554;5.704;2023-07-31T03:58:07;17.77;;;6.40;;
50495;SDS011;38806;51.554;5.704;2023-07-31T04:00:08;17.38;;;6.35;;
50495;SDS011;38806;51.554;5.704;2023-07-31T04:02:08;17.55;;;7.28;;
50495;SDS011;38806;51.554;5.704;2023-07-31T04:04:08;15.87;;;6.37;;
50495;SDS011;38806;51.554;5.704;2023-07-31T04:06:08;15.15;;;7.03;;
50495;SDS011;38806;51.554;5.704;2023-07-31T04:08:09;13.65;;;6.20;;
50495;SDS011;38806;51.554;5.704;2023-07-31T04:10:10;17.65;;;6.95;;
50495;SDS011;38806;51.554;5.704;2023-07-31T04:12:10;13.00;;;6.20;;
50495;SDS011;38806;51.554;5.704;2023-07-31T04:14:10;17.83;;;8.15;;
50495;SDS011;38806;51.554;5.704;2023-07-31T04:16:10;18.13;;;6.00;;
50495;SDS011;38806;51.554;5.704;2023-07-31T04:18:10;15.70;;;7.45;;
50495;SDS011;38806;51.554;5.704;2023-07-31T04:20:11;12.97;;;6.67;;
50495;SDS011;38806;51.554;5.704;2023-07-31T04:22:11;22.73;;;7.05;;
50495;SDS011;38806;51.554;5.704;2023-07-31T04:24:11;19.35;;;7.55;;
50495;SDS011;38806;51.554;5.704;2023-07-31T04:26:11;32.22;;;7.78;;
50495;SDS011;38806;51.554;5.704;2023-07-31T04:28:12;15.95;;;6.78;;
50495;SDS011;38806;51.554;5.704;2023-07-31T04:30:12;20.83;;;6.60;;
50495;SDS011;38806;51.554;5.704;2023-07-31T04:32:12;15.85;;;7.65;;
50495;SDS011;38806;51.554;5.704;2023-07-31T04:34:12;17.03;;;5.90;;
50495;SDS011;38806;51.554;5.704;2023-07-31T04:36:12;16.45;;;7.47;;
50495;SDS011;38806;51.554;5.704;2023-07-31T04:38:13;13.23;;;6.05;;
50495;SDS011;38806;51.554;5.704;2023-07-31T04:40:13;16.60;;;7.00;;
50495;SDS011;38806;51.554;5.704;2023-07-31T04:42:13;18.45;;;6.30;;
50495;SDS011;38806;51.554;5.704;2023-07-31T04:44:13;14.07;;;6.55;;
50495;SDS011;38806;51.554;5.704;2023-07-31T04:46:13;14.13;;;7.68;;
50495;SDS011;38806;51.554;5.704;2023-07-31T04:48:14;13.80;;;5.27;;
50495;SDS011;38806;51.554;5.704;2023-07-31T04:50:14;13.75;;;5.88;;
50495;SDS011;38806;51.554;5.704;2023-07-31T04:52:15;21.23;;;7.80;;
50495;SDS011;38806;51.554;5.704;2023-07-31T04:54:16;21.67;;;7.43;;
50495;SDS011;38806;51.554;5.704;2023-07-31T04:56:16;15.10;;;6.88;;
50495;SDS011;38806;51.554;5.704;2023-07-31T04:58:17;14.90;;;6.83;;
50495;SDS011;38806;51.554;5.704;2023-07-31T05:00:17;17.63;;;7.88;;
50495;SDS011;38806;51.554;5.704;2023-07-31T05:02:17;14.82;;;6.07;;
50495;SDS011;38806;51.554;5.704;2023-07-31T05:04:17;21.05;;;8.30;;
50495;SDS011;38806;51.554;5.704;2023-07-31T05:06:17;13.60;;;6.90;;
50495;SDS011;38806;51.554;5.704;2023-07-31T05:08:18;18.88;;;6.28;;
50495;SDS011;38806;51.554;5.704;2023-07-31T05:10:18;19.33;;;6.70;;
50495;SDS011;38806;51.554;5.704;2023-07-31T05:12:18;16.98;;;7.47;;
50495;SDS011;38806;51.554;5.704;2023-07-31T05:14:18;20.98;;;6.80;;
50495;SDS011;38806;51.554;5.704;2023-07-31T05:16:20;32.40;;;7.93;;
50495;SDS011;38806;51.554;5.704;2023-07-31T05:18:20;18.37;;;7.47;;
50495;SDS011;38806;51.554;5.704;2023-07-31T05:20:20;18.33;;;6.93;;
50495;SDS011;38806;51.554;5.704;2023-07-31T05:22:21;14.90;;;7.70;;
50495;SDS011;38806;51.554;5.704;2023-07-31T05:24:21;15.47;;;8.10;;
50495;SDS011;38806;51.554;5.704;2023-07-31T05:26:21;15.57;;;5.95;;
50495;SDS011;38806;51.554;5.704;2023-07-31T05:28:21;12.47;;;6.40;;
50495;SDS011;38806;51.554;5.704;2023-07-31T05:30:21;15.60;;;6.80;;
50495;SDS011;38806;51.554;5.704;2023-07-31T05:32:22;15.88;;;7.20;;
50495;SDS011;38806;51.554;5.704;2023-07-31T05:34:22;19.30;;;8.02;;
50495;SDS011;38806;51.554;5.704;2023-07-31T05:36:22;15.33;;;8.13;;
50495;SDS011;38806;51.554;5.704;2023-07-31T05:38:22;13.00;;;7.17;;
50495;SDS011;38806;51.554;5.704;2023-07-31T05:40:22;13.63;;;6.53;;
50495;SDS011;38806;51.554;5.704;2023-07-31T05:42:23;17.93;;;7.70;;
50495;SDS011;38806;51.554;5.704;2023-07-31T05:44:23;13.27;;;7.25;;
50495;SDS011;38806;51.554;5.704;2023-07-31T05:46:23;20.10;;;8.33;;
50495;SDS011;38806;51.554;5.704;2023-07-31T05:48:23;10.30;;;5.28;;
50495;SDS011;38806;51.554;5.704;2023-07-31T05:50:24;12.93;;;7.53;;
50495;SDS011;38806;51.554;5.704;2023-07-31T05:52:24;13.63;;;7.25;;
50495;SDS011;38806;51.554;5.704;2023-07-31T05:54:24;9.23;;;5.70;;
50495;SDS011;38806;51.554;5.704;2023-07-31T05:56:24;17.00;;;6.90;;
50495;SDS011;38806;51.554;5.704;2023-07-31T05:58:24;17.10;;;6.50;;
50495;SDS011;38806;51.554;5.704;2023-07-31T06:00:25;12.10;;;7.47;;
50495;SDS011;38806;51.554;5.704;2023-07-31T06:02:25;14.68;;;7.03;;
50495;SDS011;38806;51.554;5.704;2023-07-31T06:04:25;13.13;;;6.95;;
50495;SDS011;38806;51.554;5.704;2023-07-31T06:06:25;14.60;;;8.10;;
50495;SDS011;38806;51.554;5.704;2023-07-31T06:08:26;14.70;;;6.63;;
50495;SDS011;38806;51.554;5.704;2023-07-31T06:10:26;20.80;;;8.67;;
50495;SDS011;38806;51.554;5.704;2023-07-31T06:12:26;13.77;;;6.80;;
50495;SDS011;38806;51.554;5.704;2023-07-31T06:14:26;13.47;;;6.53;;
50495;SDS011;38806;51.554;5.704;2023-07-31T06:16:26;17.10;;;7.17;;
50495;SDS011;38806;51.554;5.704;2023-07-31T06:18:27;13.80;;;7.30;;
50495;SDS011;38806;51.554;5.704;2023-07-31T06:20:27;13.20;;;7.43;;
50495;SDS011;38806;51.554;5.704;2023-07-31T06:22:28;18.23;;;8.07;;
50495;SDS011;38806;51.554;5.704;2023-07-31T06:24:28;12.02;;;7.53;;
50495;SDS011;38806;51.554;5.704;2023-07-31T06:26:29;12.30;;;7.00;;
50495;SDS011;38806;51.554;5.704;2023-07-31T06:28:29;9.88;;;6.85;;
50495;SDS011;38806;51.554;5.704;2023-07-31T06:30:30;11.90;;;6.80;;
50495;SDS011;38806;51.554;5.704;2023-07-31T06:32:30;10.20;;;5.85;;
50495;SDS011;38806;51.554;5.704;2023-07-31T06:34:30;11.90;;;6.40;;
50495;SDS011;38806;51.554;5.704;2023-07-31T06:36:30;9.38;;;6.13;;
50495;SDS011;38806;51.554;5.704;2023-07-31T06:38:31;10.65;;;5.95;;
50495;SDS011;38806;51.554;5.704;2023-07-31T06:40:31;10.65;;;5.65;;
50495;SDS011;38806;51.554;5.704;2023-07-31T06:42:31;12.48;;;6.43;;
50495;SDS011;38806;51.554;5.704;2023-07-31T06:44:31;11.60;;;5.57;;
50495;SDS011;38806;51.554;5.704;2023-07-31T06:46:31;13.13;;;6.22;;
50495;SDS011;38806;51.554;5.704;2023-07-31T06:48:32;16.20;;;6.47;;
50495;SDS011;38806;51.554;5.704;2023-07-31T06:50:32;9.43;;;6.50;;
50495;SDS011;38806;51.554;5.704;2023-07-31T06:52:32;13.27;;;6.00;;
50495;SDS011;38806;51.554;5.704;2023-07-31T06:54:33;11.57;;;6.40;;
50495;SDS011;38806;51.554;5.704;2023-07-31T06:56:33;11.13;;;6.87;;
50495;SDS011;38806;51.554;5.704;2023-07-31T06:58:33;8.95;;;5.30;;
50495;SDS011;38806;51.554;5.704;2023-07-31T07:00:33;10.15;;;5.13;;
50495;SDS011;38806;51.554;5.704;2023-07-31T07:02:33;12.40;;;4.95;;
50495;SDS011;38806;51.554;5.704;2023-07-31T07:04:34;8.85;;;6.25;;
50495;SDS011;38806;51.554;5.704;2023-07-31T07:06:34;9.30;;;5.47;;
50495;SDS011;38806;51.554;5.704;2023-07-31T07:08:34;10.45;;;5.45;;
50495;SDS011;38806;51.554;5.704;2023-07-31T07:10:34;8.53;;;4.90;;
50495;SDS011;38806;51.554;5.704;2023-07-31T07:12:35;9.87;;;6.67;;
50495;SDS011;38806;51.554;5.704;2023-07-31T07:14:35;10.02;;;6.03;;
50495;SDS011;38806;51.554;5.704;2023-07-31T07:16:35;9.90;;;6.20;;
50495;SDS011;38806;51.554;5.704;2023-07-31T07:18:36;8.50;;;5.53;;
50495;SDS011;38806;51.554;5.704;2023-07-31T07:20:36;10.43;;;5.23;;
50495;SDS011;38806;51.554;5.704;2023-07-31T07:22:36;9.73;;;5.80;;
50495;SDS011;38806;51.554;5.704;2023-07-31T07:24:36;8.37;;;5.60;;
50495;SDS011;38806;51.554;5.704;2023-07-31T07:26:36;11.38;;;5.82;;
50495;SDS011;38806;51.554;5.704;2023-07-31T07:28:37;9.65;;;5.25;;
50495;SDS011;38806;51.554;5.704;2023-07-31T07:30:37;9.52;;;5.47;;
50495;SDS011;38806;51.554;5.704;2023-07-31T07:32:37;7.83;;;4.50;;
50495;SDS011;38806;51.554;5.704;2023-07-31T07:34:37;7.88;;;4.82;;
50495;SDS011;38806;51.554;5.704;2023-07-31T07:36:37;7.33;;;4.60;;
50495;SDS011;38806;51.554;5.704;2023-07-31T07:38:38;8.60;;;4.72;;
50495;SDS011;38806;51.554;5.704;2023-07-31T07:40:39;8.30;;;4.18;;
50495;SDS011;38806;51.554;5.704;2023-07-31T07:42:39;7.70;;;4.63;;
50495;SDS011;38806;51.554;5.704;2023-07-31T07:44:40;8.05;;;4.93;;
50495;SDS011;38806;51.554;5.704;2023-07-31T07:46:40;8.73;;;5.05;;
50495;SDS011;38806;51.554;5.704;2023-07-31T07:48:40;6.78;;;3.80;;
50495;SDS011;38806;51.554;5.704;2023-07-31T07:50:40;13.07;;;5.43;;
50495;SDS011;38806;51.554;5.704;2023-07-31T07:52:41;10.88;;;4.32;;
50495;SDS011;38806;51.554;5.704;2023-07-31T07:54:41;10.00;;;5.22;;
50495;SDS011;38806;51.554;5.704;2023-07-31T07:56:41;10.50;;;5.65;;
50495;SDS011;38806;51.554;5.704;2023-07-31T07:58:41;9.63;;;4.82;;
50495;SDS011;38806;51.554;5.704;2023-07-31T08:00:41;6.60;;;4.87;;
50495;SDS011;38806;51.554;5.704;2023-07-31T08:02:42;9.32;;;5.10;;
50495;SDS011;38806;51.554;5.704;2023-07-31T08:04:42;10.00;;;5.55;;
50495;SDS011;38806;51.554;5.704;2023-07-31T08:06:42;12.50;;;5.43;;
50495;SDS011;38806;51.554;5.704;2023-07-31T08:08:42;9.25;;;5.88;;
50495;SDS011;38806;51.554;5.704;2023-07-31T08:10:43;10.50;;;6.47;;
50495;SDS011;38806;51.554;5.704;2023-07-31T08:12:43;10.23;;;7.32;;
50495;SDS011;38806;51.554;5.704;2023-07-31T08:14:43;9.80;;;5.73;;
50495;SDS011;38806;51.554;5.704;2023-07-31T08:16:43;9.80;;;5.63;;
50495;SDS011;38806;51.554;5.704;2023-07-31T08:18:44;11.63;;;7.53;;
50495;SDS011;38806;51.554;5.704;2023-07-31T08:20:44;9.80;;;5.97;;
50495;SDS011;38806;51.554;5.704;2023-07-31T08:22:44;12.35;;;7.25;;
50495;SDS011;38806;51.554;5.704;2023-07-31T08:24:45;10.82;;;6.90;;
50495;SDS011;38806;51.554;5.704;2023-07-31T08:26:45;12.43;;;8.23;;
50495;SDS011;38806;51.554;5.704;2023-07-31T08:28:45;13.95;;;7.25;;
50495;SDS011;38806;51.554;5.704;2023-07-31T08:30:45;9.38;;;7.25;;
50495;SDS011;38806;51.554;5.704;2023-07-31T08:32:46;11.77;;;6.88;;
50495;SDS011;38806;51.554;5.704;2023-07-31T08:34:46;10.02;;;7.00;;
50495;SDS011;38806;51.554;5.704;2023-07-31T08:36:46;11.07;;;6.80;;
50495;SDS011;38806;51.554;5.704;2023-07-31T08:38:46;10.65;;;7.40;;
50495;SDS011;38806;51.554;5.704;2023-07-31T08:40:47;13.75;;;7.38;;
50495;SDS011;38806;51.554;5.704;2023-07-31T08:42:47;12.02;;;6.20;;
50495;SDS011;38806;51.554;5.704;2023-07-31T08:44:48;11.55;;;5.15;;
50495;SDS011;38806;51.554;5.704;2023-07-31T08:46:48;16.52;;;6.47;;
50495;SDS011;38806;51.554;5.704;2023-07-31T08:48:49;11.63;;;6.10;;
50495;SDS011;38806;51.554;5.704;2023-07-31T08:50:51;10.15;;;6.80;;
50495;SDS011;38806;51.554;5.704;2023-07-31T08:52:51;9.60;;;6.70;;
50495;SDS011;38806;51.554;5.704;2023-07-31T08:54:52;13.07;;;6.88;;
50495;SDS011;38806;51.554;5.704;2023-07-31T08:56:52;11.40;;;6.47;;
50495;SDS011;38806;51.554;5.704;2023-07-31T08:58:53;9.60;;;5.68;;
50495;SDS011;38806;51.554;5.704;2023-07-31T09:00:53;10.27;;;7.00;;
50495;SDS011;38806;51.554;5.704;2023-07-31T09:05:24;10.15;;;4.90;;
50495;SDS011;38806;51.554;5.704;2023-07-31T09:07:26;11.15;;;5.18;;
50495;SDS011;38806;51.554;5.704;2023-07-31T09:09:26;10.90;;;6.38;;
50495;SDS011;38806;51.554;5.704;2023-07-31T09:11:26;14.40;;;6.40;;
50495;SDS011;38806;51.554;5.704;2023-07-31T09:13:28;12.63;;;7.65;;
50495;SDS011;38806;51.554;5.704;2023-07-31T09:15:28;10.75;;;7.75;;
50495;SDS011;38806;51.554;5.704;2023-07-31T09:17:29;11.27;;;6.38;;
50495;SDS011;38806;51.554;5.704;2023-07-31T09:19:33;11.40;;;6.28;;
50495;SDS011;38806;51.554;5.704;2023-07-31T09:21:34;14.68;;;7.80;;
50495;SDS011;38806;51.554;5.704;2023-07-31T09:23:47;12.48;;;6.38;;
50495;SDS011;38806;51.554;5.704;2023-07-31T09:25:54;10.93;;;6.30;;
50495;SDS011;38806;51.554;5.704;2023-07-31T09:27:57;12.20;;;8.25;;
50495;SDS011;38806;51.554;5.704;2023-07-31T09:30:00;10.05;;;6.30;;
50495;SDS011;38806;51.554;5.704;2023-07-31T09:32:00;13.30;;;6.25;;
50495;SDS011;38806;51.554;5.704;2023-07-31T09:34:00;11.83;;;7.43;;
50495;SDS011;38806;51.554;5.704;2023-07-31T09:36:00;13.75;;;7.38;;
50495;SDS011;38806;51.554;5.704;2023-07-31T09:38:03;12.20;;;6.55;;
50495;SDS011;38806;51.554;5.704;2023-07-31T09:40:03;12.95;;;8.15;;
50495;SDS011;38806;51.554;5.704;2023-07-31T09:42:04;9.88;;;7.07;;
50495;SDS011;38806;51.554;5.704;2023-07-31T09:44:04;13.95;;;5.70;;
50495;SDS011;38806;51.554;5.704;2023-07-31T09:46:04;11.88;;;5.80;;
50495;SDS011;38806;51.554;5.704;2023-07-31T09:48:13;11.50;;;5.07;;
50495;SDS011;38806;51.554;5.704;2023-07-31T09:50:16;9.70;;;6.85;;
50495;SDS011;38806;51.554;5.704;2023-07-31T09:52:16;9.73;;;4.68;;
50495;SDS011;38806;51.554;5.704;2023-07-31T09:54:16;19.80;;;7.17;;
50495;SDS011;38806;51.554;5.704;2023-07-31T09:56:17;7.70;;;4.88;;
50495;SDS011;38806;51.554;5.704;2023-07-31T09:58:20;9.02;;;4.72;;
50495;SDS011;38806;51.554;5.704;2023-07-31T10:00:21;9.35;;;6.20;;
50495;SDS011;38806;51.554;5.704;2023-07-31T10:02:25;11.02;;;5.50;;
50495;SDS011;38806;51.554;5.704;2023-07-31T10:04:27;8.48;;;5.53;;
50495;SDS011;38806;51.554;5.704;2023-07-31T10:06:27;11.43;;;5.95;;
50495;SDS011;38806;51.554;5.704;2023-07-31T10:08:29;8.93;;;5.22;;
50495;SDS011;38806;51.554;5.704;2023-07-31T10:10:30;8.10;;;5.68;;
50495;SDS011;38806;51.554;5.704;2023-07-31T10:12:31;9.70;;;5.18;;
50495;SDS011;38806;51.554;5.704;2023-07-31T10:14:32;12.23;;;5.50;;
50495;SDS011;38806;51.554;5.704;2023-07-31T10:16:32;8.63;;;4.85;;
50495;SDS011;38806;51.554;5.704;2023-07-31T10:18:34;9.23;;;4.95;;
50495;SDS011;38806;51.554;5.704;2023-07-31T10:20:35;10.77;;;5.78;;
50495;SDS011;38806;51.554;5.704;2023-07-31T10:22:36;10.70;;;4.93;;
50495;SDS011;38806;51.554;5.704;2023-07-31T10:24:36;9.95;;;5.40;;
50495;SDS011;38806;51.554;5.704;2023-07-31T10:26:37;12.48;;;6.10;;
50495;SDS011;38806;51.554;5.704;2023-07-31T10:28:38;8.05;;;4.57;;
50495;SDS011;38806;51.554;5.704;2023-07-31T10:30:39;8.32;;;4.78;;
50495;SDS011;38806;51.554;5.704;2023-07-31T10:32:40;9.13;;;4.03;;
50495;SDS011;38806;51.554;5.704;2023-07-31T10:34:41;10.88;;;4.63;;
50495;SDS011;38806;51.554;5.704;2023-07-31T10:36:41;9.45;;;4.97;;
50495;SDS011;38806;51.554;5.704;2023-07-31T10:38:41;8.73;;;4.85;;
50495;SDS011;38806;51.554;5.704;2023-07-31T10:40:41;9.35;;;4.95;;
50495;SDS011;38806;51.554;5.704;2023-07-31T10:42:46;8.85;;;5.68;;
50495;SDS011;38806;51.554;5.704;2023-07-31T10:44:47;8.70;;;5.20;;
50495;SDS011;38806;51.554;5.704;2023-07-31T10:46:47;7.82;;;5.10;;
50495;SDS011;38806;51.554;5.704;2023-07-31T10:48:47;10.13;;;5.38;;
50495;SDS011;38806;51.554;5.704;2023-07-31T10:50:56;7.07;;;4.32;;
50495;SDS011;38806;51.554;5.704;2023-07-31T10:52:57;7.70;;;4.70;;
50495;SDS011;38806;51.554;5.704;2023-07-31T10:55:13;8.40;;;3.70;;
50495;SDS011;38806;51.554;5.704;2023-07-31T10:57:20;6.65;;;4.10;;
50495;SDS011;38806;51.554;5.704;2023-07-31T10:59:25;7.45;;;4.43;;
50495;SDS011;38806;51.554;5.704;2023-07-31T11:01:26;6.72;;;3.67;;
50495;SDS011;38806;51.554;5.704;2023-07-31T11:03:47;5.78;;;3.22;;
50495;SDS011;38806;51.554;5.704;2023-07-31T11:06:03;9.52;;;3.60;;
50495;SDS011;38806;51.554;5.704;2023-07-31T11:08:09;11.05;;;3.83;;
50495;SDS011;38806;51.554;5.704;2023-07-31T11:10:10;7.45;;;4.13;;
50495;SDS011;38806;51.554;5.704;2023-07-31T11:12:10;7.45;;;3.42;;
50495;SDS011;38806;51.554;5.704;2023-07-31T11:14:11;5.47;;;3.55;;
50495;SDS011;38806;51.554;5.704;2023-07-31T11:16:12;7.32;;;3.22;;
50495;SDS011;38806;51.554;5.704;2023-07-31T11:18:13;6.50;;;3.25;;
50495;SDS011;38806;51.554;5.704;2023-07-31T11:20:13;14.35;;;5.10;;
50495;SDS011;38806;51.554;5.704;2023-07-31T11:22:13;10.00;;;3.90;;
50495;SDS011;38806;51.554;5.704;2023-07-31T11:24:13;8.75;;;4.18;;
50495;SDS011;38806;51.554;5.704;2023-07-31T11:26:14;7.03;;;3.58;;
50495;SDS011;38806;51.554;5.704;2023-07-31T11:28:15;10.85;;;4.70;;
50495;SDS011;38806;51.554;5.704;2023-07-31T11:30:15;8.82;;;4.80;;
50495;SDS011;38806;51.554;5.704;2023-07-31T11:32:18;8.38;;;3.90;;
50495;SDS011;38806;51.554;5.704;2023-07-31T11:34:18;10.37;;;3.60;;
50495;SDS011;38806;51.554;5.704;2023-07-31T11:36:20;5.88;;;3.45;;
50495;SDS011;38806;51.554;5.704;2023-07-31T11:38:30;7.05;;;3.58;;
50495;SDS011;38806;51.554;5.704;2023-07-31T11:40:31;9.63;;;4.00;;
50495;SDS011;38806;51.554;5.704;2023-07-31T11:42:31;6.85;;;4.25;;
50495;SDS011;38806;51.554;5.704;2023-07-31T11:44:38;7.93;;;3.80;;
50495;SDS011;38806;51.554;5.704;2023-07-31T11:46:38;9.10;;;4.68;;
50495;SDS011;38806;51.554;5.704;2023-07-31T11:48:39;7.65;;;3.78;;
50495;SDS011;38806;51.554;5.704;2023-07-31T11:50:39;11.20;;;3.85;;
50495;SDS011;38806;51.554;5.704;2023-07-31T11:52:40;5.47;;;3.00;;
50495;SDS011;38806;51.554;5.704;2023-07-31T11:54:41;5.30;;;3.40;;
50495;SDS011;38806;51.554;5.704;2023-07-31T11:56:42;5.95;;;3.00;;
50495;SDS011;38806;51.554;5.704;2023-07-31T11:58:44;4.95;;;2.58;;
50495;SDS011;38806;51.554;5.704;2023-07-31T12:00:45;6.68;;;2.78;;
50495;SDS011;38806;51.554;5.704;2023-07-31T12:02:46;5.38;;;3.22;;
50495;SDS011;38806;51.554;5.704;2023-07-31T12:04:46;6.30;;;2.63;;
50495;SDS011;38806;51.554;5.704;2023-07-31T12:06:47;6.65;;;3.38;;
50495;SDS011;38806;51.554;5.704;2023-07-31T12:08:47;5.40;;;2.60;;
50495;SDS011;38806;51.554;5.704;2023-07-31T12:10:52;7.82;;;2.55;;